Time;durP1;ratioP1;P1;durP2;ratioP2;P2;SDS_P1;SDS_P2;PMS_P1;PMS_P2;Temp;Humidity;BMP_temperature;BMP_pressure;BME280_temperature;BME280_humidity;BME280_pressure;Samples;Min_cycle;Max_cycle;Signal;HPM_P1;HPM_P2
2023/01/11 00:00:31;;;;;;;;;;;;;;;6.89;64.35;99667.38;4467984;32;35684;-68
2023/01/11 00:02:59;;;;;;;;;;;;;;;7.09;63.35;99667.94;4468644;31;34309;-69
2023/01/11 00:05:26;;;;;;;;;;;;;;;7.24;63.27;99665.19;4481336;32;33158;-66
2023/01/11 00:07:54;;;;;;;;;;;;;;;7.11;63.45;99671.38;4467474;32;34216;-65
2023/01/11 00:10:21;;;;;;;;;;;;;;;6.79;65.50;99674.19;4469369;32;34379;-66
2023/01/11 00:12:48;;;;;;;;;;;;;;;7.04;64.03;99673.56;4475528;32;35425;-67
2023/01/11 00:15:16;;;;;;;;;;;;;;;7.18;63.90;99681.53;4478896;32;34421;-66
2023/01/11 00:17:43;;;;;;;;;;;;;;;6.97;63.64;99675.75;4476162;32;33996;-65
2023/01/11 00:20:10;;;;;;;;;;;;;;;7.17;63.73;99674.53;4464836;32;33883;-63
2023/01/11 00:22:38;;;;;;;;;;;;;;;7.36;62.00;99678.72;4473812;32;34191;-66
2023/01/11 00:25:05;;;;;;;;;;;;;;;7.49;61.59;99679.66;4474654;31;34502;-67
2023/01/11 00:27:32;;;;;;;;;;;;;;;7.62;61.55;99674.41;4471207;32;31697;-62
2023/01/11 00:29:59;;;;;;;;;;;;;;;7.68;61.22;99679.34;4470981;31;34508;-62
2023/01/11 00:32:27;;;;;;;;;;;;;;;7.75;60.32;99679.78;4473817;32;34741;-62
2023/01/11 00:34:54;;;;;;;;;;;;;;;7.33;61.14;99682.41;4474257;32;33209;-62
2023/01/11 00:37:22;;;;;;;;;;;;;;;7.56;60.81;99678.28;4467992;32;33843;-65
2023/01/11 00:39:50;;;;;;;;;;;;;;;7.00;63.43;99685.34;4466926;31;34261;-64
2023/01/11 00:48:03;;;;;;;;;;;;;;;7.37;61.90;99691.06;4467185;32;34146;-62
2023/01/11 00:50:32;;;;;;;;;;;;;;;6.71;64.82;99703.06;4471643;32;34579;-63
2023/01/11 00:52:59;;;;;;;;;;;;;;;7.75;59.89;99711.75;4473569;32;32771;-63
2023/01/11 00:55:27;;;;;;;;;;;;;;;7.68;60.35;99716.63;4477542;32;33469;-63
2023/01/11 00:57:54;;;;;;;;;;;;;;;7.35;61.14;99714.25;4465257;32;34089;-62
2023/01/11 01:00:21;;;;;;;;;;;;;;;7.49;60.74;99714.25;4478027;32;34000;-62
2023/01/11 01:02:49;;;;;;;;;;;;;;;7.38;62.71;99716.72;4469573;32;33578;-61
2023/01/11 01:05:16;;;;;;;;;;;;;;;6.99;62.19;99723.53;4468215;32;34588;-62
2023/01/11 01:07:44;;;;;;;;;;;;;;;7.33;61.66;99726.81;4463873;32;34078;-65
2023/01/11 01:10:12;;;;;;;;;;;;;;;6.55;64.09;99740.34;4469511;32;33252;-62
2023/01/11 01:15:25;;;;;;;;;;;;;;;7.19;62.30;99727.66;4467123;32;35552;-63
2023/01/11 01:17:53;;;;;;;;;;;;;;;7.29;61.90;99734.16;4471357;32;32776;-63
2023/01/11 01:20:21;;;;;;;;;;;;;;;7.27;60.86;99727.19;4469908;32;34319;-62
2023/01/11 01:22:49;;;;;;;;;;;;;;;7.32;61.68;99722.44;4469159;32;33196;-63
2023/01/11 01:25:16;;;;;;;;;;;;;;;7.31;62.33;99718.91;4465673;32;34603;-63
2023/01/11 01:27:43;;;;;;;;;;;;;;;7.43;60.36;99714.66;4469981;32;33720;-65
2023/01/11 01:30:10;;;;;;;;;;;;;;;7.51;60.25;99716.81;4470586;31;34160;-65
2023/01/11 01:32:38;;;;;;;;;;;;;;;7.28;61.89;99712.94;4478317;32;33986;-65
2023/01/11 01:35:05;;;;;;;;;;;;;;;6.57;64.50;99719.81;4472576;32;34107;-62
2023/01/11 01:37:33;;;;;;;;;;;;;;;7.41;61.94;99705.88;4473870;32;33802;-65
2023/01/11 01:40:00;;;;;;;;;;;;;;;6.94;62.96;99710.53;4465386;32;34303;-64
2023/01/11 01:42:27;;;;;;;;;;;;;;;6.95;63.24;99719.34;4452245;32;33757;-65
2023/01/11 01:45:33;;;;;;;;;;;;;;;7.31;62.21;99708.25;4480243;32;33214;-65
2023/01/11 01:48:01;;;;;;;;;;;;;;;7.20;62.54;99713.41;4396130;32;34006;-65
2023/01/11 01:50:28;;;;;;;;;;;;;;;7.20;62.46;99721.41;4403236;32;34582;-64
2023/01/11 01:52:57;;;;;;;;;;;;;;;6.50;64.30;99721.13;4435010;32;34769;-67
2023/01/11 01:55:26;;;;;;;;;;;;;;;6.57;65.38;99730.47;4474287;32;33177;-65
2023/01/11 01:57:54;;;;;;;;;;;;;;;7.11;63.21;99729.94;4468607;31;34142;-66
2023/01/11 02:00:21;;;;;;;;;;;;;;;7.47;61.26;99727.66;4467904;32;35213;-64
2023/01/11 02:02:48;;;;;;;;;;;;;;;7.24;62.79;99726.41;4471591;32;34280;-64
2023/01/11 02:05:16;;;;;;;;;;;;;;;7.19;61.69;99723.19;4477955;32;32141;-64
2023/01/11 02:07:43;;;;;;;;;;;;;;;7.04;63.26;99720.63;4476257;32;34314;-64
2023/01/11 02:10:18;;;;;;;;;;;;;;;6.98;62.58;99720.03;4473764;31;34125;-64
2023/01/11 02:13:03;;;;;;;;;;;;;;;7.09;62.97;99721.19;4453361;32;33863;-64
2023/01/11 02:15:31;;;;;;;;;;;;;;;6.38;66.16;99727.16;4456340;32;32958;-66
2023/01/11 02:17:58;;;;;;;;;;;;;;;6.56;66.00;99727.91;4470719;32;33011;-64
2023/01/11 02:20:25;;;;;;;;;;;;;;;6.81;64.13;99719.34;4468840;32;34139;-64
2023/01/11 02:23:11;;;;;;;;;;;;;;;6.62;65.68;99728.41;4471512;32;32780;-68
2023/01/11 02:25:51;;;;;;;;;;;;;;;6.32;66.16;99727.50;4468074;31;31893;-64
2023/01/11 02:28:37;;;;;;;;;;;;;;;6.60;65.26;99742.72;4452327;32;34751;-63
2023/01/11 02:31:07;;;;;;;;;;;;;;;6.81;65.80;99737.97;4465007;32;35455;-64
2023/01/11 02:33:41;;;;;;;;;;;;;;;7.00;63.27;99741.25;4472177;32;33241;-65
2023/01/11 02:36:12;;;;;;;;;;;;;;;7.11;62.54;99737.91;4463440;32;32078;-64
2023/01/11 02:38:44;;;;;;;;;;;;;;;7.19;63.32;99748.94;4469447;32;34347;-62
2023/01/11 02:41:18;;;;;;;;;;;;;;;7.29;62.36;99755.44;4479744;32;34590;-62
2023/01/11 02:46:42;;;;;;;;;;;;;;;7.64;61.91;99757.72;4455597;32;34860;-62
2023/01/11 02:49:16;;;;;;;;;;;;;;;7.67;60.67;99757.53;4475207;32;34191;-62
2023/01/11 02:51:54;;;;;;;;;;;;;;;7.88;59.72;99761.50;4453384;32;34199;-63
2023/01/11 02:54:22;;;;;;;;;;;;;;;8.05;58.62;99763.09;4454377;32;33718;-62
2023/01/11 02:56:50;;;;;;;;;;;;;;;8.16;58.68;99765.09;4479972;32;33360;-65
2023/01/11 02:59:19;;;;;;;;;;;;;;;8.62;57.19;99759.44;4478245;32;34269;-62
2023/01/11 03:01:47;;;;;;;;;;;;;;;8.97;56.23;99762.41;4451237;32;33974;-62
2023/01/11 03:04:28;;;;;;;;;;;;;;;8.65;57.42;99758.38;4470882;32;35738;-62
2023/01/11 03:07:03;;;;;;;;;;;;;;;8.43;57.04;99757.13;4465199;32;33533;-62
2023/01/11 03:09:33;;;;;;;;;;;;;;;8.77;55.72;99765.56;4451266;32;34070;-63
2023/01/11 03:14:53;;;;;;;;;;;;;;;8.83;56.24;99762.50;4459202;32;32643;-62
2023/01/11 03:17:34;;;;;;;;;;;;;;;8.77;56.31;99765.56;4477128;32;32457;-62
2023/01/11 03:20:08;;;;;;;;;;;;;;;9.03;55.52;99769.16;4455089;32;33707;-62
2023/01/11 03:22:51;;;;;;;;;;;;;;;8.52;57.28;99769.00;4474864;32;34351;-62
2023/01/11 03:25:23;;;;;;;;;;;;;;;8.32;57.30;99762.28;4453271;32;33068;-62
2023/01/11 03:27:55;;;;;;;;;;;;;;;8.84;55.79;99772.19;4459542;32;33178;-62
2023/01/11 03:30:22;;;;;;;;;;;;;;;8.88;55.11;99771.03;4459370;32;33902;-62
2023/01/11 03:32:51;;;;;;;;;;;;;;;8.44;57.13;99771.31;4479198;32;35424;-63
2023/01/11 03:35:29;;;;;;;;;;;;;;;8.48;56.63;99771.03;4470517;32;35551;-63
2023/01/11 03:37:59;;;;;;;;;;;;;;;8.40;57.28;99768.00;4462575;32;33703;-64
2023/01/11 03:40:27;;;;;;;;;;;;;;;8.35;57.70;99762.09;4476881;32;34539;-64
2023/01/11 03:43:09;;;;;;;;;;;;;;;8.56;58.14;99776.69;4460886;32;34480;-68
2023/01/11 03:45:45;;;;;;;;;;;;;;;8.34;56.76;99773.69;4467120;32;34842;-62
2023/01/11 03:48:17;;;;;;;;;;;;;;;8.59;56.50;99780.97;4460184;32;31817;-66
2023/01/11 03:50:45;;;;;;;;;;;;;;;8.55;56.22;99785.66;4452557;32;33837;-65
2023/01/11 03:53:12;;;;;;;;;;;;;;;7.87;58.60;99785.59;4468559;32;34012;-64
2023/01/11 03:55:39;;;;;;;;;;;;;;;8.61;56.04;99787.09;4469551;32;32859;-62
2023/01/11 03:58:07;;;;;;;;;;;;;;;9.16;54.12;99780.69;4446741;32;33238;-62
2023/01/11 04:00:35;;;;;;;;;;;;;;;8.69;55.81;99779.41;4477205;32;35046;-63
2023/01/11 04:03:02;;;;;;;;;;;;;;;9.07;54.59;99774.16;4457593;32;34042;-68
2023/01/11 04:05:29;;;;;;;;;;;;;;;9.01;54.12;99758.56;4467279;32;32580;-62
2023/01/11 04:07:57;;;;;;;;;;;;;;;8.30;57.19;99758.84;4475574;32;33128;-63
2023/01/11 04:10:24;;;;;;;;;;;;;;;8.48;55.96;99744.34;4474936;32;35670;-66
2023/01/11 04:12:51;;;;;;;;;;;;;;;7.99;57.52;99744.81;4475140;32;35345;-63
2023/01/11 04:15:18;;;;;;;;;;;;;;;8.27;57.22;99741.25;4470703;32;35249;-63
2023/01/11 04:17:46;;;;;;;;;;;;;;;8.07;58.55;99737.22;4476371;32;34325;-63
2023/01/11 04:20:13;;;;;;;;;;;;;;;8.29;58.09;99743.81;4478164;32;35290;-63
2023/01/11 04:22:40;;;;;;;;;;;;;;;8.15;58.36;99744.69;4483765;32;34041;-66
2023/01/11 04:25:08;;;;;;;;;;;;;;;8.56;57.11;99754.50;4483296;31;33112;-64
2023/01/11 04:27:36;;;;;;;;;;;;;;;8.38;58.22;99769.94;4480593;32;34693;-63
2023/01/11 04:30:03;;;;;;;;;;;;;;;8.69;56.64;99767.88;4478198;32;34418;-64
2023/01/11 04:32:30;;;;;;;;;;;;;;;9.07;54.64;99767.97;4473743;32;33835;-63
2023/01/11 04:34:58;;;;;;;;;;;;;;;9.17;54.26;99773.53;4479278;31;34446;-63
2023/01/11 04:37:25;;;;;;;;;;;;;;;9.38;53.63;99771.22;4468229;32;33645;-66
2023/01/11 04:39:52;;;;;;;;;;;;;;;8.93;54.10;99781.41;4469470;32;35152;-63
2023/01/11 04:42:19;;;;;;;;;;;;;;;9.02;54.57;99784.31;4466728;32;33138;-66
2023/01/11 04:44:48;;;;;;;;;;;;;;;9.30;53.61;99779.75;4479320;32;34282;-67
2023/01/11 04:47:16;;;;;;;;;;;;;;;9.55;52.73;99781.56;4475483;32;33224;-68
2023/01/11 04:49:43;;;;;;;;;;;;;;;9.44;53.36;99777.00;4471850;32;33971;-66
2023/01/11 04:52:11;;;;;;;;;;;;;;;9.44;52.62;99773.47;4474039;32;34962;-66
2023/01/11 04:54:38;;;;;;;;;;;;;;;8.96;53.85;99775.88;4469729;32;34156;-66
2023/01/11 04:57:06;;;;;;;;;;;;;;;8.98;53.21;99776.59;4475206;32;34533;-67
2023/01/11 04:59:33;;;;;;;;;;;;;;;8.84;55.38;99788.22;4471508;32;34647;-66
2023/01/11 05:02:01;;;;;;;;;;;;;;;9.24;53.32;99785.50;4475778;32;34207;-67
2023/01/11 05:04:28;;;;;;;;;;;;;;;9.15;54.23;99784.34;4475218;32;35074;-66
2023/01/11 05:06:55;;;;;;;;;;;;;;;8.21;56.31;99786.97;4475737;32;33358;-66
2023/01/11 05:09:23;;;;;;;;;;;;;;;8.18;56.98;99773.81;4474727;32;33712;-65
2023/01/11 05:11:50;;;;;;;;;;;;;;;8.40;55.85;99762.66;4470423;32;34301;-64
2023/01/11 05:14:17;;;;;;;;;;;;;;;8.24;55.84;99768.09;4467906;32;35433;-64
2023/01/11 05:16:45;;;;;;;;;;;;;;;8.35;56.55;99775.44;4471397;32;34044;-65
2023/01/11 05:19:12;;;;;;;;;;;;;;;8.12;55.89;99780.44;4468495;32;34394;-65
2023/01/11 05:21:40;;;;;;;;;;;;;;;8.39;55.79;99795.63;4471631;32;35225;-66
2023/01/11 05:24:14;;;;;;;;;;;;;;;7.95;57.34;99793.97;4474921;31;34095;-65
2023/01/11 05:26:42;;;;;;;;;;;;;;;7.98;56.59;99788.44;4476243;32;33311;-62
2023/01/11 05:29:11;;;;;;;;;;;;;;;8.38;55.08;99794.78;4477404;32;34152;-63
2023/01/11 05:31:39;;;;;;;;;;;;;;;8.80;53.79;99786.72;4470474;32;33068;-63
2023/01/11 05:34:06;;;;;;;;;;;;;;;8.35;55.22;99789.59;4476181;32;34436;-62
2023/01/11 05:36:34;;;;;;;;;;;;;;;8.36;55.65;99798.47;4466836;32;33177;-62
2023/01/11 05:39:02;;;;;;;;;;;;;;;8.26;55.48;99789.34;4476964;31;34314;-63
2023/01/11 05:41:29;;;;;;;;;;;;;;;8.82;53.78;99780.28;4464888;32;34368;-64
2023/01/11 05:46:42;;;;;;;;;;;;;;;8.58;54.00;99796.13;4469354;32;34207;-63
2023/01/11 05:49:11;;;;;;;;;;;;;;;8.63;53.99;99782.47;4471062;31;34354;-64
2023/01/11 05:51:38;;;;;;;;;;;;;;;8.61;53.70;99777.25;4470863;31;35333;-62
2023/01/11 05:54:06;;;;;;;;;;;;;;;8.87;53.50;99793.34;4476585;31;34154;-65
2023/01/11 05:56:33;;;;;;;;;;;;;;;8.57;54.82;99786.44;4477292;31;33393;-66
2023/01/11 05:59:02;;;;;;;;;;;;;;;8.95;53.15;99779.47;4482484;31;34236;-65
2023/01/11 06:01:30;;;;;;;;;;;;;;;9.16;51.69;99778.03;4484337;31;34721;-66
2023/01/11 06:03:57;;;;;;;;;;;;;;;8.81;52.51;99767.06;4473276;32;35323;-65
2023/01/11 06:06:24;;;;;;;;;;;;;;;8.42;54.21;99767.91;4475595;31;33458;-65
2023/01/11 06:08:52;;;;;;;;;;;;;;;8.68;53.14;99771.53;4468985;31;35005;-65
2023/01/11 06:11:19;;;;;;;;;;;;;;;8.69;53.39;99766.06;4476730;31;35532;-65
2023/01/11 06:13:46;;;;;;;;;;;;;;;8.21;54.91;99767.44;4467999;32;34217;-64
2023/01/11 06:16:17;;;;;;;;;;;;;;;8.21;54.78;99770.13;4484254;31;33266;-67
2023/01/11 06:18:46;;;;;;;;;;;;;;;8.33;54.98;99777.31;4480827;31;34942;-65
2023/01/11 06:21:14;;;;;;;;;;;;;;;8.15;54.73;99768.69;4478684;31;34323;-64
2023/01/11 06:23:42;;;;;;;;;;;;;;;8.53;54.51;99787.56;4489660;31;35105;-65
2023/01/11 06:26:11;;;;;;;;;;;;;;;8.03;56.70;99798.81;4491316;31;33586;-65
2023/01/11 06:28:38;;;;;;;;;;;;;;;8.60;53.85;99804.03;4472313;31;33727;-66
2023/01/11 06:31:05;;;;;;;;;;;;;;;8.91;53.29;99800.19;4478242;32;34294;-64
2023/01/11 06:33:33;;;;;;;;;;;;;;;9.05;52.68;99792.12;4482576;32;35324;-63
2023/01/11 06:36:07;;;;;;;;;;;;;;;9.17;51.83;99792.22;4472298;31;34162;-62
2023/01/11 06:38:35;;;;;;;;;;;;;;;9.19;51.63;99799.19;4476515;31;34844;-65
2023/01/11 06:41:03;;;;;;;;;;;;;;;8.98;53.33;99803.31;4475001;31;35378;-64
2023/01/11 06:43:31;;;;;;;;;;;;;;;9.06;52.21;99799.16;4471104;32;32654;-63
2023/01/11 06:45:58;;;;;;;;;;;;;;;9.23;51.56;99790.00;4471750;32;33130;-63
2023/01/11 06:48:26;;;;;;;;;;;;;;;9.08;52.30;99789.25;4474556;31;33814;-62
2023/01/11 06:50:54;;;;;;;;;;;;;;;9.27;51.47;99785.28;4471512;32;34820;-63
2023/01/11 06:53:22;;;;;;;;;;;;;;;9.22;51.65;99792.78;4466606;32;35160;-65
2023/01/11 06:55:50;;;;;;;;;;;;;;;8.70;53.22;99791.81;4473737;32;34622;-63
2023/01/11 06:58:18;;;;;;;;;;;;;;;9.01;53.78;99800.44;4472536;32;33967;-63
2023/01/11 07:00:46;;;;;;;;;;;;;;;9.31;53.17;99794.84;4476730;32;35518;-63
2023/01/11 07:03:13;;;;;;;;;;;;;;;10.02;50.36;99809.44;4477321;31;33769;-63
2023/01/11 07:05:42;;;;;;;;;;;;;;;10.85;48.55;99809.63;4481695;32;34477;-63
2023/01/11 07:08:10;;;;;;;;;;;;;;;11.87;45.01;99811.59;4475972;31;35514;-62
2023/01/11 07:10:37;;;;;;;;;;;;;;;12.49;43.30;99822.81;4470063;31;35326;-65
2023/01/11 07:13:04;;;;;;;;;;;;;;;13.14;42.04;99831.75;4472723;32;34823;-62
2023/01/11 07:15:32;;;;;;;;;;;;;;;13.32;41.14;99834.72;4473012;32;33309;-63
2023/01/11 07:18:00;;;;;;;;;;;;;;;13.37;41.10;99840.59;4476250;32;35239;-64
2023/01/11 07:20:27;;;;;;;;;;;;;;;13.24;41.68;99838.03;4472203;31;35575;-64
2023/01/11 07:22:58;;;;;;;;;;;;;;;13.80;40.92;99836.88;4474417;31;34196;-70
2023/01/11 07:25:26;;;;;;;;;;;;;;;14.37;39.16;99838.12;4478370;31;33472;-64
2023/01/11 07:28:00;;;;;;;;;;;;;;;14.55;38.97;99841.91;4469774;31;34231;-63
2023/01/11 07:30:28;;;;;;;;;;;;;;;15.40;37.31;99848.50;4476139;32;33176;-66
2023/01/11 07:32:56;;;;;;;;;;;;;;;15.12;37.79;99861.88;4475776;32;35102;-63
2023/01/11 07:35:24;;;;;;;;;;;;;;;15.17;37.64;99860.59;4477066;31;34300;-64
2023/01/11 07:37:52;;;;;;;;;;;;;;;14.70;39.06;99857.69;4477311;32;33803;-63
2023/01/11 07:40:20;;;;;;;;;;;;;;;14.49;38.78;99858.59;4483847;31;32952;-63
2023/01/11 07:45:34;;;;;;;;;;;;;;;14.39;38.92;99839.72;4476815;32;34674;-63
2023/01/11 07:48:12;;;;;;;;;;;;;;;14.24;39.50;99859.91;4465411;32;35105;-63
2023/01/11 07:50:40;;;;;;;;;;;;;;;16.12;35.95;99846.28;4471397;31;34471;-63
2023/01/11 07:53:11;;;;;;;;;;;;;;;16.09;35.17;99844.72;4477794;32;34154;-64
2023/01/11 07:55:38;;;;;;;;;;;;;;;15.45;36.29;99850.81;4478325;32;33116;-63
2023/01/11 07:58:07;;;;;;;;;;;;;;;14.99;37.64;99839.75;4477326;32;34517;-65
2023/01/11 08:00:34;;;;;;;;;;;;;;;15.46;37.54;99837.16;4466041;32;35407;-64
2023/01/11 08:03:02;;;;;;;;;;;;;;;16.49;34.77;99838.12;4470707;31;34846;-63
2023/01/11 08:05:29;;;;;;;;;;;;;;;16.39;35.12;99838.19;4473675;31;34375;-63
2023/01/11 08:07:57;;;;;;;;;;;;;;;15.84;36.18;99841.66;4470801;31;34054;-63
2023/01/11 08:10:24;;;;;;;;;;;;;;;16.09;35.30;99847.41;4463088;32;34389;-63
2023/01/11 08:15:41;;;;;;;;;;;;;;;15.91;35.77;99857.28;4473388;32;34011;-62
2023/01/11 08:18:10;;;;;;;;;;;;;;;14.77;38.75;99866.94;4473582;31;34010;-63
2023/01/11 08:20:37;;;;;;;;;;;;;;;15.56;36.59;99866.81;4479784;31;33986;-64
2023/01/11 08:23:05;;;;;;;;;;;;;;;15.35;38.04;99867.00;4477047;31;34657;-63
2023/01/11 08:25:33;;;;;;;;;;;;;;;15.49;36.86;99858.44;4466953;32;33436;-63
2023/01/11 08:28:01;;;;;;;;;;;;;;;15.30;38.26;99861.16;4469405;32;33968;-64
2023/01/11 08:30:28;;;;;;;;;;;;;;;15.93;36.11;99860.69;4470272;32;34171;-63
2023/01/11 08:32:56;;;;;;;;;;;;;;;15.27;37.66;99864.13;4470844;32;34156;-63
2023/01/11 08:35:24;;;;;;;;;;;;;;;16.24;36.04;99859.44;4465147;32;34199;-65
2023/01/11 08:37:51;;;;;;;;;;;;;;;16.80;34.78;99863.03;4463596;32;33361;-64
2023/01/11 08:40:19;;;;;;;;;;;;;;;17.55;33.46;99860.03;4474615;32;34281;-64
2023/01/11 08:42:55;;;;;;;;;;;;;;;17.44;34.03;99863.84;4469225;32;34709;-63
2023/01/11 08:45:23;;;;;;;;;;;;;;;17.22;33.91;99863.28;4467900;32;32888;-66
2023/01/11 08:47:50;;;;;;;;;;;;;;;15.96;35.98;99868.50;4467077;32;33646;-63
2023/01/11 08:50:18;;;;;;;;;;;;;;;18.02;32.80;99865.16;4471835;32;34306;-66
2023/01/11 08:52:47;;;;;;;;;;;;;;;16.62;34.64;99868.34;4480412;31;34531;-62
2023/01/11 08:55:14;;;;;;;;;;;;;;;16.60;35.31;99867.66;4467322;31;33276;-67
2023/01/11 08:57:41;;;;;;;;;;;;;;;16.78;34.84;99873.13;4478144;31;34397;-65
2023/01/11 09:00:09;;;;;;;;;;;;;;;17.15;34.72;99867.62;4472865;31;34610;-64
2023/01/11 09:02:36;;;;;;;;;;;;;;;16.34;36.59;99872.03;4478485;31;34658;-64
2023/01/11 09:05:04;;;;;;;;;;;;;;;17.13;35.09;99868.78;4472061;32;33294;-64
2023/01/11 09:07:31;;;;;;;;;;;;;;;17.39;34.20;99872.41;4468075;32;34239;-64
2023/01/11 09:09:58;;;;;;;;;;;;;;;14.85;38.98;99889.47;4475975;31;34465;-63
2023/01/11 09:12:26;;;;;;;;;;;;;;;16.03;36.65;99883.09;4474711;32;34136;-63
2023/01/11 09:14:54;;;;;;;;;;;;;;;15.86;37.00;99890.12;4450636;32;906818;-64
2023/01/11 09:17:21;;;;;;;;;;;;;;;16.06;37.00;99882.81;4474654;32;35341;-64
2023/01/11 09:19:48;;;;;;;;;;;;;;;17.67;34.47;99883.97;4471672;32;34367;-63
2023/01/11 09:22:16;;;;;;;;;;;;;;;18.06;33.73;99880.06;4476450;32;34713;-63
2023/01/11 09:24:43;;;;;;;;;;;;;;;18.54;32.28;99875.91;4466255;32;33745;-66
2023/01/11 09:27:10;;;;;;;;;;;;;;;18.14;33.41;99886.37;4472275;32;34123;-64
2023/01/11 09:29:38;;;;;;;;;;;;;;;17.04;35.48;99884.06;4474194;32;34584;-63
2023/01/11 09:32:05;;;;;;;;;;;;;;;17.37;34.98;99879.00;4467704;32;34412;-65
2023/01/11 09:34:33;;;;;;;;;;;;;;;19.06;32.08;99873.91;4471830;32;33258;-64
2023/01/11 09:37:05;;;;;;;;;;;;;;;20.32;30.29;99878.13;4477933;32;34018;-65
2023/01/11 09:39:34;;;;;;;;;;;;;;;21.47;27.76;99870.28;4473903;32;34455;-65
2023/01/11 09:42:09;;;;;;;;;;;;;;;20.85;29.14;99865.72;4470021;32;34490;-64
2023/01/11 09:44:56;;;;;;;;;;;;;;;20.34;29.48;99873.38;4448932;32;33393;-64
2023/01/11 09:47:35;;;;;;;;;;;;;;;20.08;29.85;99869.03;4469925;32;35541;-64
2023/01/11 09:50:10;;;;;;;;;;;;;;;19.21;31.06;99868.69;4469833;32;34596;-63
2023/01/11 09:52:40;;;;;;;;;;;;;;;17.98;33.28;99867.31;4468251;32;34240;-63
2023/01/11 09:55:14;;;;;;;;;;;;;;;18.04;33.82;99865.81;4465998;32;32017;-64
2023/01/11 09:57:46;;;;;;;;;;;;;;;18.05;33.20;99868.38;4459347;32;34191;-66
2023/01/11 10:00:20;;;;;;;;;;;;;;;19.09;31.87;99851.88;4473128;32;34249;-64
2023/01/11 10:03:00;;;;;;;;;;;;;;;19.56;30.89;99850.38;4471020;32;34896;-64
2023/01/11 10:05:36;;;;;;;;;;;;;;;19.79;30.77;99847.84;4467651;32;34903;-64
2023/01/11 10:08:07;;;;;;;;;;;;;;;20.07;30.48;99839.31;4466129;32;34221;-67
2023/01/11 10:11:00;;;;;;;;;;;;;;;21.18;28.46;99828.25;4466854;32;33773;-67
2023/01/11 10:13:59;;;;;;;;;;;;;;;22.39;27.61;99840.97;4454215;32;33430;-67
2023/01/11 10:16:58;;;;;;;;;;;;;;;24.84;24.35;99833.25;4478548;32;33256;-66
2023/01/11 10:20:11;;;;;;;;;;;;;;;25.71;23.14;99821.41;4467302;32;34221;-66
2023/01/11 10:22:42;;;;;;;;;;;;;;;26.01;21.95;99832.00;4471391;32;34254;-65
2023/01/11 10:25:17;;;;;;;;;;;;;;;26.38;21.82;99813.13;4474060;32;33384;-64
2023/01/11 10:27:59;;;;;;;;;;;;;;;26.27;22.11;99813.78;4456597;32;33218;-66
2023/01/11 10:30:39;;;;;;;;;;;;;;;25.67;22.87;99811.94;4461547;32;33967;-65
2023/01/11 10:39:34;;;;;;;;;;;;;;;25.57;21.70;99817.00;4452647;32;32869;-67
2023/01/11 10:42:28;;;;;;;;;;;;;;;25.41;22.21;99815.53;4455131;31;34225;-66
2023/01/11 10:45:01;;;;;;;;;;;;;;;25.62;22.28;99813.62;4466079;31;36721;-66
2023/01/11 10:47:49;;;;;;;;;;;;;;;25.45;22.18;99826.91;4476093;32;34143;-65
2023/01/11 10:50:16;;;;;;;;;;;;;;;26.32;21.33;99819.47;4468492;32;32987;-65
2023/01/11 10:53:07;;;;;;;;;;;;;;;25.90;21.73;99825.22;4471497;32;34881;-66
2023/01/11 10:55:42;;;;;;;;;;;;;;;23.82;23.97;99823.84;4457938;32;34241;-64
2023/01/11 10:58:10;;;;;;;;;;;;;;;23.44;24.88;99815.94;4469740;32;32958;-66
2023/01/11 11:01:02;;;;;;;;;;;;;;;24.12;23.85;99809.97;4465448;31;33051;-65
2023/01/11 11:03:37;;;;;;;;;;;;;;;24.42;23.71;99812.47;4467495;32;34503;-68
2023/01/11 11:06:07;;;;;;;;;;;;;;;24.32;23.69;99810.06;4455866;32;33989;-65
2023/01/11 11:08:45;;;;;;;;;;;;;;;25.38;22.99;99802.25;4470904;32;34680;-66
2023/01/11 11:11:15;;;;;;;;;;;;;;;26.18;21.80;99803.03;4449896;32;34741;-66
2023/01/11 11:14:02;;;;;;;;;;;;;;;25.53;22.05;99808.38;4453032;32;35012;-66
2023/01/11 11:16:47;;;;;;;;;;;;;;;24.30;23.29;99799.34;4475010;31;34238;-65
2023/01/11 11:19:15;;;;;;;;;;;;;;;24.36;23.80;99800.41;4452504;32;34313;-66
2023/01/11 11:21:43;;;;;;;;;;;;;;;23.63;24.80;99795.31;4455226;32;33397;-65
2023/01/11 11:24:19;;;;;;;;;;;;;;;23.53;24.56;99792.06;4462639;32;33717;-66
2023/01/11 11:26:48;;;;;;;;;;;;;;;23.36;25.18;99785.19;4456745;32;35531;-65
2023/01/11 11:29:19;;;;;;;;;;;;;;;23.47;25.03;99771.00;4451820;32;34799;-66
2023/01/11 11:31:47;;;;;;;;;;;;;;;23.42;25.12;99768.00;4470902;31;32043;-66
2023/01/11 11:34:19;;;;;;;;;;;;;;;22.30;26.05;99772.03;4456562;32;33910;-66
2023/01/11 11:36:46;;;;;;;;;;;;;;;21.38;27.25;99774.22;4450129;31;35519;-66
2023/01/11 11:39:18;;;;;;;;;;;;;;;20.55;28.64;99777.69;4464611;32;32651;-67
2023/01/11 11:41:49;;;;;;;;;;;;;;;20.31;28.77;99775.88;4454414;32;34004;-68
2023/01/11 11:44:24;;;;;;;;;;;;;;;18.70;31.52;99781.09;4473535;32;34345;-69
2023/01/11 11:47:15;;;;;;;;;;;;;;;18.34;32.59;99775.91;4469625;32;33394;-68
2023/01/11 11:49:43;;;;;;;;;;;;;;;17.75;33.43;99788.44;4463845;32;33905;-68
2023/01/11 11:52:13;;;;;;;;;;;;;;;17.55;34.03;99785.09;4478223;31;34562;-66
2023/01/11 11:54:42;;;;;;;;;;;;;;;17.39;34.96;99774.16;4473937;32;34050;-66
2023/01/11 11:57:12;;;;;;;;;;;;;;;16.83;35.29;99781.63;4471085;32;34344;-68
2023/01/11 11:59:42;;;;;;;;;;;;;;;16.59;35.73;99781.34;4465768;31;33251;-66
2023/01/11 12:02:17;;;;;;;;;;;;;;;16.33;36.53;99779.34;4476927;32;31525;-66
2023/01/11 12:04:48;;;;;;;;;;;;;;;15.93;37.41;99779.72;4450149;32;33166;-66
2023/01/11 12:07:16;;;;;;;;;;;;;;;15.55;37.84;99782.34;4458453;32;34359;-65
2023/01/11 12:09:48;;;;;;;;;;;;;;;14.94;39.17;99790.78;4482544;32;32832;-66
2023/01/11 12:12:16;;;;;;;;;;;;;;;14.52;40.52;99796.41;4473689;31;34397;-65
2023/01/11 12:14:44;;;;;;;;;;;;;;;14.74;39.07;99797.16;4454307;32;34106;-65
2023/01/11 12:17:30;;;;;;;;;;;;;;;14.83;39.58;99797.16;4456255;32;34492;-66
2023/01/11 12:19:58;;;;;;;;;;;;;;;15.07;38.99;99799.44;4468040;32;33832;-65
2023/01/11 12:22:29;;;;;;;;;;;;;;;14.82;39.62;99792.75;4475294;31;33257;-67
2023/01/11 12:25:02;;;;;;;;;;;;;;;14.98;38.67;99789.50;4466612;32;36404;-66
2023/01/11 12:27:36;;;;;;;;;;;;;;;14.46;40.48;99791.53;4476308;32;34359;-65
2023/01/11 12:30:18;;;;;;;;;;;;;;;14.75;40.69;99788.06;4466781;32;34502;-65
2023/01/11 12:33:00;;;;;;;;;;;;;;;14.27;41.65;99803.09;4478520;31;32137;-66
2023/01/11 12:35:34;;;;;;;;;;;;;;;14.86;39.94;99796.88;4463759;32;32611;-67
2023/01/11 12:38:01;;;;;;;;;;;;;;;14.24;40.33;99798.00;4474321;31;34387;-66
2023/01/11 12:40:28;;;;;;;;;;;;;;;13.79;42.35;99810.97;4468660;32;35512;-66
2023/01/11 12:43:01;;;;;;;;;;;;;;;14.07;41.77;99804.03;4471934;32;33305;-66
2023/01/11 12:45:38;;;;;;;;;;;;;;;14.10;41.66;99809.16;4465864;31;33776;-68
2023/01/11 12:48:15;;;;;;;;;;;;;;;13.60;42.69;99792.91;4467639;31;34094;-66
2023/01/11 12:51:00;;;;;;;;;;;;;;;14.12;42.35;99804.47;4473552;31;33989;-66
2023/01/11 12:53:38;;;;;;;;;;;;;;;14.49;40.84;99798.50;4464351;31;33632;-66
2023/01/11 12:56:35;;;;;;;;;;;;;;;14.34;40.50;99801.56;4467222;32;35174;-68
2023/01/11 12:59:21;;;;;;;;;;;;;;;14.10;41.04;99804.63;4420500;32;34216;-67
2023/01/11 13:01:53;;;;;;;;;;;;;;;14.05;41.52;99803.31;4467053;31;34759;-65
2023/01/11 13:04:39;;;;;;;;;;;;;;;13.99;41.99;99797.47;4454048;32;31525;-64
2023/01/11 13:07:16;;;;;;;;;;;;;;;14.19;41.68;99798.41;4470008;32;33750;-66
2023/01/11 13:09:52;;;;;;;;;;;;;;;13.99;41.72;99796.63;4473332;32;35212;-67
2023/01/11 13:12:22;;;;;;;;;;;;;;;14.18;41.76;99791.31;4469792;31;33905;-65
2023/01/11 13:15:08;;;;;;;;;;;;;;;14.21;41.72;99800.97;4468245;31;33616;-64
2023/01/11 13:17:37;;;;;;;;;;;;;;;14.06;41.68;99796.94;4465024;32;34315;-67
2023/01/11 13:20:16;;;;;;;;;;;;;;;14.22;41.92;99799.97;4469004;31;35241;-67
2023/01/11 13:22:45;;;;;;;;;;;;;;;14.72;40.90;99801.81;4466124;31;34339;-64
2023/01/11 13:25:18;;;;;;;;;;;;;;;14.68;40.13;99796.72;4466004;32;33233;-65
2023/01/11 13:27:45;;;;;;;;;;;;;;;14.61;40.72;99795.56;4451466;32;34238;-67
2023/01/11 13:30:12;;;;;;;;;;;;;;;14.77;40.59;99802.28;4467177;32;34017;-66
2023/01/11 13:32:41;;;;;;;;;;;;;;;14.98;39.86;99810.22;4462103;31;33865;-65
2023/01/11 13:35:16;;;;;;;;;;;;;;;15.07;40.00;99812.06;4448631;32;32042;-65
2023/01/11 13:37:52;;;;;;;;;;;;;;;14.95;40.44;99811.34;4461999;31;33791;-63
2023/01/11 13:40:27;;;;;;;;;;;;;;;15.11;40.01;99811.63;4449353;32;33581;-65